sensor_id;sensor_type;location;lat;lon;timestamp;P1;durP1;ratioP1;P2;durP2;ratioP2
16642;SDS011;8435;52.184;5.406;2022-12-19T00:00:02;28.23;;;19.60;;
16642;SDS011;8435;52.184;5.406;2022-12-19T00:02:29;31.70;;;20.87;;
16642;SDS011;8435;52.184;5.406;2022-12-19T00:04:57;29.07;;;19.83;;
16642;SDS011;8435;52.184;5.406;2022-12-19T00:07:24;27.80;;;20.10;;
16642;SDS011;8435;52.184;5.406;2022-12-19T00:09:51;28.13;;;20.70;;
16642;SDS011;8435;52.184;5.406;2022-12-19T00:12:18;29.30;;;20.37;;
16642;SDS011;8435;52.184;5.406;2022-12-19T00:14:45;28.17;;;19.87;;
16642;SDS011;8435;52.184;5.406;2022-12-19T00:17:14;29.30;;;20.20;;
16642;SDS011;8435;52.184;5.406;2022-12-19T00:19:40;26.77;;;19.57;;
16642;SDS011;8435;52.184;5.406;2022-12-19T00:22:07;27.70;;;20.17;;
16642;SDS011;8435;52.184;5.406;2022-12-19T00:24:34;30.63;;;21.07;;
16642;SDS011;8435;52.184;5.406;2022-12-19T00:27:01;28.60;;;20.30;;
16642;SDS011;8435;52.184;5.406;2022-12-19T00:29:28;29.67;;;20.90;;
16642;SDS011;8435;52.184;5.406;2022-12-19T00:31:54;29.53;;;19.93;;
16642;SDS011;8435;52.184;5.406;2022-12-19T00:34:24;26.50;;;20.27;;
16642;SDS011;8435;52.184;5.406;2022-12-19T00:36:50;26.07;;;19.80;;
16642;SDS011;8435;52.184;5.406;2022-12-19T00:39:17;31.37;;;21.37;;
16642;SDS011;8435;52.184;5.406;2022-12-19T00:41:44;26.47;;;20.00;;
16642;SDS011;8435;52.184;5.406;2022-12-19T00:44:11;29.30;;;20.47;;
16642;SDS011;8435;52.184;5.406;2022-12-19T00:46:39;27.00;;;19.43;;
16642;SDS011;8435;52.184;5.406;2022-12-19T00:49:06;27.40;;;19.67;;
16642;SDS011;8435;52.184;5.406;2022-12-19T00:51:35;26.27;;;19.00;;
16642;SDS011;8435;52.184;5.406;2022-12-19T00:54:02;28.07;;;20.53;;
16642;SDS011;8435;52.184;5.406;2022-12-19T00:56:30;26.90;;;20.17;;
16642;SDS011;8435;52.184;5.406;2022-12-19T00:58:59;28.77;;;19.60;;
16642;SDS011;8435;52.184;5.406;2022-12-19T01:01:26;24.33;;;18.07;;
16642;SDS011;8435;52.184;5.406;2022-12-19T01:03:56;26.60;;;18.87;;
16642;SDS011;8435;52.184;5.406;2022-12-19T01:06:23;24.67;;;18.37;;
16642;SDS011;8435;52.184;5.406;2022-12-19T01:08:52;24.67;;;17.77;;
16642;SDS011;8435;52.184;5.406;2022-12-19T01:11:19;23.90;;;16.87;;
16642;SDS011;8435;52.184;5.406;2022-12-19T01:14:06;21.40;;;17.10;;
16642;SDS011;8435;52.184;5.406;2022-12-19T01:16:32;21.90;;;17.17;;
16642;SDS011;8435;52.184;5.406;2022-12-19T01:18:59;21.90;;;17.03;;
16642;SDS011;8435;52.184;5.406;2022-12-19T01:21:26;22.73;;;16.63;;
16642;SDS011;8435;52.184;5.406;2022-12-19T01:23:54;20.83;;;16.73;;
16642;SDS011;8435;52.184;5.406;2022-12-19T01:26:21;22.13;;;16.20;;
16642;SDS011;8435;52.184;5.406;2022-12-19T01:28:48;20.93;;;15.90;;
16642;SDS011;8435;52.184;5.406;2022-12-19T01:31:14;22.90;;;17.27;;
16642;SDS011;8435;52.184;5.406;2022-12-19T01:33:41;23.63;;;17.50;;
16642;SDS011;8435;52.184;5.406;2022-12-19T01:36:08;23.20;;;17.37;;
16642;SDS011;8435;52.184;5.406;2022-12-19T01:38:35;22.77;;;16.53;;
16642;SDS011;8435;52.184;5.406;2022-12-19T01:41:03;20.60;;;16.57;;
16642;SDS011;8435;52.184;5.406;2022-12-19T01:43:32;22.13;;;17.90;;
16642;SDS011;8435;52.184;5.406;2022-12-19T01:46:19;24.17;;;17.97;;
16642;SDS011;8435;52.184;5.406;2022-12-19T01:48:52;22.47;;;17.47;;
16642;SDS011;8435;52.184;5.406;2022-12-19T01:51:19;22.97;;;18.13;;
16642;SDS011;8435;52.184;5.406;2022-12-19T01:53:48;24.90;;;18.97;;
16642;SDS011;8435;52.184;5.406;2022-12-19T01:56:20;23.93;;;19.13;;
16642;SDS011;8435;52.184;5.406;2022-12-19T01:58:49;25.80;;;19.93;;
16642;SDS011;8435;52.184;5.406;2022-12-19T02:01:19;25.33;;;18.73;;
16642;SDS011;8435;52.184;5.406;2022-12-19T02:03:46;24.03;;;17.87;;
16642;SDS011;8435;52.184;5.406;2022-12-19T02:06:13;28.47;;;19.37;;
16642;SDS011;8435;52.184;5.406;2022-12-19T02:08:40;26.33;;;18.83;;
16642;SDS011;8435;52.184;5.406;2022-12-19T02:11:09;25.90;;;18.80;;
16642;SDS011;8435;52.184;5.406;2022-12-19T02:13:37;26.87;;;20.40;;
16642;SDS011;8435;52.184;5.406;2022-12-19T02:16:06;26.23;;;19.73;;
16642;SDS011;8435;52.184;5.406;2022-12-19T02:18:46;28.73;;;20.53;;
16642;SDS011;8435;52.184;5.406;2022-12-19T02:21:21;28.03;;;20.43;;
16642;SDS011;8435;52.184;5.406;2022-12-19T02:24:03;27.30;;;19.20;;
16642;SDS011;8435;52.184;5.406;2022-12-19T02:26:59;28.33;;;20.40;;
16642;SDS011;8435;52.184;5.406;2022-12-19T02:29:41;26.93;;;19.53;;
16642;SDS011;8435;52.184;5.406;2022-12-19T02:32:33;27.10;;;19.57;;
16642;SDS011;8435;52.184;5.406;2022-12-19T02:35:15;28.30;;;19.03;;
16642;SDS011;8435;52.184;5.406;2022-12-19T02:37:47;30.27;;;20.27;;
16642;SDS011;8435;52.184;5.406;2022-12-19T02:40:18;28.20;;;19.63;;
16642;SDS011;8435;52.184;5.406;2022-12-19T02:42:49;28.53;;;20.00;;
16642;SDS011;8435;52.184;5.406;2022-12-19T02:45:19;24.70;;;18.37;;
16642;SDS011;8435;52.184;5.406;2022-12-19T02:47:49;24.13;;;17.93;;
16642;SDS011;8435;52.184;5.406;2022-12-19T02:50:18;24.17;;;18.77;;
16642;SDS011;8435;52.184;5.406;2022-12-19T02:52:45;27.07;;;18.80;;
16642;SDS011;8435;52.184;5.406;2022-12-19T02:55:14;23.27;;;17.77;;
16642;SDS011;8435;52.184;5.406;2022-12-19T03:00:46;24.50;;;17.73;;
16642;SDS011;8435;52.184;5.406;2022-12-19T03:03:21;25.60;;;18.63;;
16642;SDS011;8435;52.184;5.406;2022-12-19T03:05:59;23.47;;;16.83;;
16642;SDS011;8435;52.184;5.406;2022-12-19T03:08:36;22.93;;;17.33;;
16642;SDS011;8435;52.184;5.406;2022-12-19T03:11:11;24.57;;;17.57;;
16642;SDS011;8435;52.184;5.406;2022-12-19T03:13:40;23.73;;;16.83;;
16642;SDS011;8435;52.184;5.406;2022-12-19T03:16:11;21.80;;;17.00;;
16642;SDS011;8435;52.184;5.406;2022-12-19T03:18:40;21.27;;;16.60;;
16642;SDS011;8435;52.184;5.406;2022-12-19T03:21:10;23.57;;;17.43;;
16642;SDS011;8435;52.184;5.406;2022-12-19T03:23:41;23.10;;;17.30;;
16642;SDS011;8435;52.184;5.406;2022-12-19T03:26:10;21.13;;;15.13;;
16642;SDS011;8435;52.184;5.406;2022-12-19T03:28:41;21.33;;;17.00;;
16642;SDS011;8435;52.184;5.406;2022-12-19T03:31:11;21.53;;;17.07;;
16642;SDS011;8435;52.184;5.406;2022-12-19T03:33:41;22.07;;;17.17;;
16642;SDS011;8435;52.184;5.406;2022-12-19T03:36:11;23.57;;;17.77;;
16642;SDS011;8435;52.184;5.406;2022-12-19T03:38:45;22.93;;;16.63;;
16642;SDS011;8435;52.184;5.406;2022-12-19T03:41:13;21.50;;;15.67;;
16642;SDS011;8435;52.184;5.406;2022-12-19T03:44:02;22.90;;;16.43;;
16642;SDS011;8435;52.184;5.406;2022-12-19T03:46:29;21.60;;;15.80;;
16642;SDS011;8435;52.184;5.406;2022-12-19T03:48:57;20.60;;;15.60;;
16642;SDS011;8435;52.184;5.406;2022-12-19T03:51:26;20.27;;;15.60;;
16642;SDS011;8435;52.184;5.406;2022-12-19T03:53:59;22.90;;;15.50;;
16642;SDS011;8435;52.184;5.406;2022-12-19T03:56:30;20.10;;;15.10;;
16642;SDS011;8435;52.184;5.406;2022-12-19T03:59:03;18.20;;;14.37;;
16642;SDS011;8435;52.184;5.406;2022-12-19T04:01:32;18.27;;;14.83;;
16642;SDS011;8435;52.184;5.406;2022-12-19T04:04:02;18.67;;;14.10;;
16642;SDS011;8435;52.184;5.406;2022-12-19T04:06:31;17.20;;;13.17;;
16642;SDS011;8435;52.184;5.406;2022-12-19T04:08:59;17.17;;;14.13;;
16642;SDS011;8435;52.184;5.406;2022-12-19T04:11:29;16.30;;;13.03;;
16642;SDS011;8435;52.184;5.406;2022-12-19T04:14:01;16.83;;;13.13;;
16642;SDS011;8435;52.184;5.406;2022-12-19T04:16:32;14.77;;;12.63;;
16642;SDS011;8435;52.184;5.406;2022-12-19T04:19:07;14.30;;;12.60;;
16642;SDS011;8435;52.184;5.406;2022-12-19T04:21:40;14.93;;;12.20;;
16642;SDS011;8435;52.184;5.406;2022-12-19T04:24:11;12.60;;;11.30;;
16642;SDS011;8435;52.184;5.406;2022-12-19T04:26:41;13.07;;;10.87;;
16642;SDS011;8435;52.184;5.406;2022-12-19T04:29:12;11.90;;;10.43;;
16642;SDS011;8435;52.184;5.406;2022-12-19T04:31:40;12.70;;;10.90;;
16642;SDS011;8435;52.184;5.406;2022-12-19T04:34:09;13.80;;;10.93;;
16642;SDS011;8435;52.184;5.406;2022-12-19T04:36:36;12.80;;;10.93;;
16642;SDS011;8435;52.184;5.406;2022-12-19T04:39:03;11.70;;;10.27;;
16642;SDS011;8435;52.184;5.406;2022-12-19T04:41:30;13.23;;;10.90;;
16642;SDS011;8435;52.184;5.406;2022-12-19T04:43:57;12.23;;;10.40;;
16642;SDS011;8435;52.184;5.406;2022-12-19T04:46:23;12.50;;;10.63;;
16642;SDS011;8435;52.184;5.406;2022-12-19T04:48:50;11.93;;;10.73;;
16642;SDS011;8435;52.184;5.406;2022-12-19T04:51:18;13.03;;;10.60;;
16642;SDS011;8435;52.184;5.406;2022-12-19T04:53:45;11.67;;;10.47;;
16642;SDS011;8435;52.184;5.406;2022-12-19T04:56:12;12.03;;;10.53;;
16642;SDS011;8435;52.184;5.406;2022-12-19T04:58:39;11.47;;;10.20;;
16642;SDS011;8435;52.184;5.406;2022-12-19T05:01:06;13.13;;;11.53;;
16642;SDS011;8435;52.184;5.406;2022-12-19T05:03:34;11.17;;;9.80;;
16642;SDS011;8435;52.184;5.406;2022-12-19T05:06:02;11.70;;;10.40;;
16642;SDS011;8435;52.184;5.406;2022-12-19T05:08:31;13.50;;;10.57;;
16642;SDS011;8435;52.184;5.406;2022-12-19T05:10:58;12.27;;;10.90;;
16642;SDS011;8435;52.184;5.406;2022-12-19T05:13:25;11.43;;;10.03;;
16642;SDS011;8435;52.184;5.406;2022-12-19T05:15:56;11.37;;;9.87;;
16642;SDS011;8435;52.184;5.406;2022-12-19T05:18:23;11.23;;;9.93;;
16642;SDS011;8435;52.184;5.406;2022-12-19T05:20:50;11.67;;;10.23;;
16642;SDS011;8435;52.184;5.406;2022-12-19T05:23:17;11.40;;;10.10;;
16642;SDS011;8435;52.184;5.406;2022-12-19T05:25:46;10.27;;;8.77;;
16642;SDS011;8435;52.184;5.406;2022-12-19T05:28:13;10.50;;;9.40;;
16642;SDS011;8435;52.184;5.406;2022-12-19T05:30:40;10.43;;;9.20;;
16642;SDS011;8435;52.184;5.406;2022-12-19T05:33:07;10.47;;;8.37;;
16642;SDS011;8435;52.184;5.406;2022-12-19T05:35:34;9.27;;;8.33;;
16642;SDS011;8435;52.184;5.406;2022-12-19T05:38:02;9.33;;;8.27;;
16642;SDS011;8435;52.184;5.406;2022-12-19T05:40:29;9.43;;;8.43;;
16642;SDS011;8435;52.184;5.406;2022-12-19T05:42:57;9.33;;;8.43;;
16642;SDS011;8435;52.184;5.406;2022-12-19T05:45:24;8.33;;;7.53;;
16642;SDS011;8435;52.184;5.406;2022-12-19T05:47:51;9.13;;;8.23;;
16642;SDS011;8435;52.184;5.406;2022-12-19T05:50:17;9.00;;;8.10;;
16642;SDS011;8435;52.184;5.406;2022-12-19T05:52:44;9.13;;;8.03;;
16642;SDS011;8435;52.184;5.406;2022-12-19T05:55:11;8.70;;;7.80;;
16642;SDS011;8435;52.184;5.406;2022-12-19T05:57:38;8.10;;;7.37;;
16642;SDS011;8435;52.184;5.406;2022-12-19T06:00:06;8.00;;;7.20;;
16642;SDS011;8435;52.184;5.406;2022-12-19T06:02:34;7.97;;;7.27;;
16642;SDS011;8435;52.184;5.406;2022-12-19T06:05:01;7.83;;;7.03;;
16642;SDS011;8435;52.184;5.406;2022-12-19T06:07:33;8.33;;;7.53;;
16642;SDS011;8435;52.184;5.406;2022-12-19T06:09:59;8.03;;;7.23;;
16642;SDS011;8435;52.184;5.406;2022-12-19T06:12:26;7.20;;;6.50;;
16642;SDS011;8435;52.184;5.406;2022-12-19T06:14:53;7.53;;;6.70;;
16642;SDS011;8435;52.184;5.406;2022-12-19T06:17:21;6.73;;;6.13;;
16642;SDS011;8435;52.184;5.406;2022-12-19T06:19:48;6.80;;;6.20;;
16642;SDS011;8435;52.184;5.406;2022-12-19T06:22:15;7.50;;;6.80;;
16642;SDS011;8435;52.184;5.406;2022-12-19T06:24:41;7.43;;;6.73;;
16642;SDS011;8435;52.184;5.406;2022-12-19T06:27:09;7.27;;;6.57;;
16642;SDS011;8435;52.184;5.406;2022-12-19T06:29:35;6.77;;;6.07;;
16642;SDS011;8435;52.184;5.406;2022-12-19T06:32:02;6.80;;;6.10;;
16642;SDS011;8435;52.184;5.406;2022-12-19T06:34:31;6.80;;;6.20;;
16642;SDS011;8435;52.184;5.406;2022-12-19T06:36:57;10.60;;;9.53;;
16642;SDS011;8435;52.184;5.406;2022-12-19T06:39:24;9.00;;;8.10;;
16642;SDS011;8435;52.184;5.406;2022-12-19T06:41:51;8.80;;;7.90;;
16642;SDS011;8435;52.184;5.406;2022-12-19T06:44:35;6.80;;;6.20;;
16642;SDS011;8435;52.184;5.406;2022-12-19T06:47:02;6.60;;;5.97;;
16642;SDS011;8435;52.184;5.406;2022-12-19T06:49:30;6.33;;;5.77;;
16642;SDS011;8435;52.184;5.406;2022-12-19T06:51:57;9.77;;;8.77;;
16642;SDS011;8435;52.184;5.406;2022-12-19T06:54:24;9.43;;;8.47;;
16642;SDS011;8435;52.184;5.406;2022-12-19T06:56:51;8.97;;;8.07;;
16642;SDS011;8435;52.184;5.406;2022-12-19T06:59:18;6.80;;;6.20;;
16642;SDS011;8435;52.184;5.406;2022-12-19T07:01:55;6.33;;;5.73;;
16642;SDS011;8435;52.184;5.406;2022-12-19T07:04:27;5.87;;;5.37;;
16642;SDS011;8435;52.184;5.406;2022-12-19T07:06:58;6.57;;;5.80;;
16642;SDS011;8435;52.184;5.406;2022-12-19T07:09:26;6.47;;;5.87;;
16642;SDS011;8435;52.184;5.406;2022-12-19T07:11:55;10.33;;;8.47;;
16642;SDS011;8435;52.184;5.406;2022-12-19T07:14:22;9.50;;;8.50;;
16642;SDS011;8435;52.184;5.406;2022-12-19T07:16:49;9.27;;;8.37;;
16642;SDS011;8435;52.184;5.406;2022-12-19T07:19:16;7.90;;;7.20;;
16642;SDS011;8435;52.184;5.406;2022-12-19T07:21:44;7.30;;;6.60;;
16642;SDS011;8435;52.184;5.406;2022-12-19T07:24:12;8.80;;;7.90;;
16642;SDS011;8435;52.184;5.406;2022-12-19T07:26:40;8.10;;;7.30;;
16642;SDS011;8435;52.184;5.406;2022-12-19T07:29:07;11.77;;;9.97;;
16642;SDS011;8435;52.184;5.406;2022-12-19T07:31:35;9.03;;;8.17;;
16642;SDS011;8435;52.184;5.406;2022-12-19T07:34:01;8.60;;;7.80;;
16642;SDS011;8435;52.184;5.406;2022-12-19T07:36:28;9.60;;;8.70;;
16642;SDS011;8435;52.184;5.406;2022-12-19T07:38:55;8.87;;;8.03;;
16642;SDS011;8435;52.184;5.406;2022-12-19T07:41:23;8.63;;;7.67;;
16642;SDS011;8435;52.184;5.406;2022-12-19T07:43:50;8.90;;;8.03;;
16642;SDS011;8435;52.184;5.406;2022-12-19T07:46:17;9.13;;;7.83;;
16642;SDS011;8435;52.184;5.406;2022-12-19T07:48:43;8.40;;;7.60;;
16642;SDS011;8435;52.184;5.406;2022-12-19T07:51:10;8.23;;;7.53;;
16642;SDS011;8435;52.184;5.406;2022-12-19T07:53:37;9.43;;;8.50;;
16642;SDS011;8435;52.184;5.406;2022-12-19T07:56:04;8.90;;;8.00;;
16642;SDS011;8435;52.184;5.406;2022-12-19T07:58:36;8.97;;;8.07;;
16642;SDS011;8435;52.184;5.406;2022-12-19T08:01:03;8.03;;;7.23;;
16642;SDS011;8435;52.184;5.406;2022-12-19T08:03:30;8.80;;;7.93;;
16642;SDS011;8435;52.184;5.406;2022-12-19T08:06:00;8.43;;;7.63;;
16642;SDS011;8435;52.184;5.406;2022-12-19T08:08:32;8.87;;;7.97;;
16642;SDS011;8435;52.184;5.406;2022-12-19T08:11:05;8.17;;;7.37;;
16642;SDS011;8435;52.184;5.406;2022-12-19T08:13:33;9.07;;;7.97;;
16642;SDS011;8435;52.184;5.406;2022-12-19T08:18:44;8.07;;;7.27;;
16642;SDS011;8435;52.184;5.406;2022-12-19T08:21:11;8.53;;;7.73;;
16642;SDS011;8435;52.184;5.406;2022-12-19T08:23:39;8.30;;;7.50;;
16642;SDS011;8435;52.184;5.406;2022-12-19T08:26:06;8.80;;;7.60;;
16642;SDS011;8435;52.184;5.406;2022-12-19T08:28:37;7.50;;;6.80;;
16642;SDS011;8435;52.184;5.406;2022-12-19T08:31:05;8.07;;;7.37;;
16642;SDS011;8435;52.184;5.406;2022-12-19T08:33:33;8.30;;;7.50;;
16642;SDS011;8435;52.184;5.406;2022-12-19T08:36:02;8.13;;;7.33;;
16642;SDS011;8435;52.184;5.406;2022-12-19T08:38:29;8.33;;;7.53;;
16642;SDS011;8435;52.184;5.406;2022-12-19T08:40:56;7.93;;;7.10;;
16642;SDS011;8435;52.184;5.406;2022-12-19T08:43:23;7.60;;;6.90;;
16642;SDS011;8435;52.184;5.406;2022-12-19T08:45:49;7.77;;;6.97;;
16642;SDS011;8435;52.184;5.406;2022-12-19T08:48:16;7.33;;;6.63;;
16642;SDS011;8435;52.184;5.406;2022-12-19T08:50:49;7.20;;;6.57;;
16642;SDS011;8435;52.184;5.406;2022-12-19T08:53:16;7.30;;;6.60;;
16642;SDS011;8435;52.184;5.406;2022-12-19T08:55:43;7.40;;;6.70;;
16642;SDS011;8435;52.184;5.406;2022-12-19T08:58:10;7.13;;;6.43;;
16642;SDS011;8435;52.184;5.406;2022-12-19T09:00:37;7.90;;;7.20;;
16642;SDS011;8435;52.184;5.406;2022-12-19T09:03:03;7.60;;;6.50;;
16642;SDS011;8435;52.184;5.406;2022-12-19T09:05:30;7.33;;;6.60;;
16642;SDS011;8435;52.184;5.406;2022-12-19T09:07:58;8.20;;;7.40;;
16642;SDS011;8435;52.184;5.406;2022-12-19T09:10:26;7.13;;;6.33;;
16642;SDS011;8435;52.184;5.406;2022-12-19T09:12:54;8.00;;;7.30;;
16642;SDS011;8435;52.184;5.406;2022-12-19T09:15:21;7.20;;;6.50;;
16642;SDS011;8435;52.184;5.406;2022-12-19T09:17:47;7.23;;;6.53;;
16642;SDS011;8435;52.184;5.406;2022-12-19T09:20:14;7.77;;;6.93;;
16642;SDS011;8435;52.184;5.406;2022-12-19T09:22:41;7.60;;;6.77;;
16642;SDS011;8435;52.184;5.406;2022-12-19T09:25:10;6.80;;;6.07;;
16642;SDS011;8435;52.184;5.406;2022-12-19T09:27:36;7.10;;;6.47;;
16642;SDS011;8435;52.184;5.406;2022-12-19T09:30:04;6.77;;;6.17;;
16642;SDS011;8435;52.184;5.406;2022-12-19T09:32:31;6.87;;;5.90;;
16642;SDS011;8435;52.184;5.406;2022-12-19T09:34:58;6.77;;;6.17;;
16642;SDS011;8435;52.184;5.406;2022-12-19T09:37:25;8.37;;;6.13;;
16642;SDS011;8435;52.184;5.406;2022-12-19T09:39:52;7.00;;;6.40;;
16642;SDS011;8435;52.184;5.406;2022-12-19T09:42:26;6.47;;;5.70;;
16642;SDS011;8435;52.184;5.406;2022-12-19T09:45:10;6.90;;;5.67;;
16642;SDS011;8435;52.184;5.406;2022-12-19T09:47:53;7.00;;;6.30;;
16642;SDS011;8435;52.184;5.406;2022-12-19T09:50:25;6.70;;;6.03;;
16642;SDS011;8435;52.184;5.406;2022-12-19T09:52:59;6.97;;;6.30;;
16642;SDS011;8435;52.184;5.406;2022-12-19T09:55:31;6.37;;;5.67;;
16642;SDS011;8435;52.184;5.406;2022-12-19T09:58:02;6.70;;;5.60;;
16642;SDS011;8435;52.184;5.406;2022-12-19T10:00:33;6.23;;;5.63;;
16642;SDS011;8435;52.184;5.406;2022-12-19T10:03:06;6.90;;;6.10;;
16642;SDS011;8435;52.184;5.406;2022-12-19T10:05:42;6.03;;;5.53;;
16642;SDS011;8435;52.184;5.406;2022-12-19T10:08:14;6.63;;;5.70;;
16642;SDS011;8435;52.184;5.406;2022-12-19T10:10:44;6.63;;;5.93;;
16642;SDS011;8435;52.184;5.406;2022-12-19T10:13:24;6.80;;;6.10;;
16642;SDS011;8435;52.184;5.406;2022-12-19T10:16:02;6.47;;;5.87;;
16642;SDS011;8435;52.184;5.406;2022-12-19T10:18:36;6.53;;;5.63;;
16642;SDS011;8435;52.184;5.406;2022-12-19T10:21:11;5.90;;;5.20;;
16642;SDS011;8435;52.184;5.406;2022-12-19T10:23:53;6.20;;;5.70;;
16642;SDS011;8435;52.184;5.406;2022-12-19T10:26:33;6.80;;;6.20;;
16642;SDS011;8435;52.184;5.406;2022-12-19T10:29:09;6.47;;;5.77;;
16642;SDS011;8435;52.184;5.406;2022-12-19T10:32:04;6.17;;;5.47;;
16642;SDS011;8435;52.184;5.406;2022-12-19T10:34:40;6.10;;;5.60;;
16642;SDS011;8435;52.184;5.406;2022-12-19T10:37:11;6.70;;;5.27;;
16642;SDS011;8435;52.184;5.406;2022-12-19T10:39:45;6.07;;;5.57;;
16642;SDS011;8435;52.184;5.406;2022-12-19T10:42:21;6.40;;;5.80;;
16642;SDS011;8435;52.184;5.406;2022-12-19T10:44:55;6.10;;;5.60;;
16642;SDS011;8435;52.184;5.406;2022-12-19T10:47:24;6.33;;;5.50;;
16642;SDS011;8435;52.184;5.406;2022-12-19T10:49:51;5.50;;;5.00;;
16642;SDS011;8435;52.184;5.406;2022-12-19T10:52:39;7.50;;;5.23;;
16642;SDS011;8435;52.184;5.406;2022-12-19T10:55:31;5.27;;;4.77;;
16642;SDS011;8435;52.184;5.406;2022-12-19T10:58:09;5.33;;;4.83;;
16642;SDS011;8435;52.184;5.406;2022-12-19T11:03:42;9.03;;;8.10;;
16642;SDS011;8435;52.184;5.406;2022-12-19T11:09:17;6.13;;;5.50;;
16642;SDS011;8435;52.184;5.406;2022-12-19T11:11:46;5.27;;;4.80;;
16642;SDS011;8435;52.184;5.406;2022-12-19T11:14:18;4.90;;;4.50;;
16642;SDS011;8435;52.184;5.406;2022-12-19T11:16:48;5.27;;;4.77;;
16642;SDS011;8435;52.184;5.406;2022-12-19T11:19:19;7.67;;;5.30;;
16642;SDS011;8435;52.184;5.406;2022-12-19T11:21:55;6.20;;;4.63;;
16642;SDS011;8435;52.184;5.406;2022-12-19T11:24:23;6.40;;;5.33;;
16642;SDS011;8435;52.184;5.406;2022-12-19T11:26:53;5.27;;;4.77;;
16642;SDS011;8435;52.184;5.406;2022-12-19T11:29:22;5.00;;;4.60;;
16642;SDS011;8435;52.184;5.406;2022-12-19T11:31:57;5.47;;;4.80;;
16642;SDS011;8435;52.184;5.406;2022-12-19T11:34:26;4.93;;;4.43;;
16642;SDS011;8435;52.184;5.406;2022-12-19T11:36:55;5.00;;;4.50;;
16642;SDS011;8435;52.184;5.406;2022-12-19T11:39:32;5.63;;;5.10;;
16642;SDS011;8435;52.184;5.406;2022-12-19T11:42:11;7.67;;;6.87;;
16642;SDS011;8435;52.184;5.406;2022-12-19T11:44:43;6.30;;;5.70;;
16642;SDS011;8435;52.184;5.406;2022-12-19T11:47:19;5.70;;;5.17;;
16642;SDS011;8435;52.184;5.406;2022-12-19T11:49:57;5.40;;;4.90;;
16642;SDS011;8435;52.184;5.406;2022-12-19T11:52:38;5.63;;;5.13;;
16642;SDS011;8435;52.184;5.406;2022-12-19T11:55:14;5.70;;;5.17;;
16642;SDS011;8435;52.184;5.406;2022-12-19T11:57:45;6.03;;;5.40;;
16642;SDS011;8435;52.184;5.406;2022-12-19T12:00:13;5.20;;;4.70;;
16642;SDS011;8435;52.184;5.406;2022-12-19T12:05:46;5.10;;;4.70;;
16642;SDS011;8435;52.184;5.406;2022-12-19T12:08:28;4.57;;;4.17;;
16642;SDS011;8435;52.184;5.406;2022-12-19T12:11:07;8.60;;;7.80;;
16642;SDS011;8435;52.184;5.406;2022-12-19T12:13:50;5.60;;;5.10;;
16642;SDS011;8435;52.184;5.406;2022-12-19T12:16:36;5.43;;;4.93;;
16642;SDS011;8435;52.184;5.406;2022-12-19T12:19:11;5.27;;;4.87;;
16642;SDS011;8435;52.184;5.406;2022-12-19T12:21:50;5.30;;;4.77;;
16642;SDS011;8435;52.184;5.406;2022-12-19T12:24:30;4.97;;;4.50;;
16642;SDS011;8435;52.184;5.406;2022-12-19T12:27:04;6.33;;;5.30;;
16642;SDS011;8435;52.184;5.406;2022-12-19T12:29:45;4.20;;;3.90;;
16642;SDS011;8435;52.184;5.406;2022-12-19T12:32:22;4.77;;;4.37;;
16642;SDS011;8435;52.184;5.406;2022-12-19T12:34:57;4.53;;;4.07;;
16642;SDS011;8435;52.184;5.406;2022-12-19T12:37:38;4.47;;;4.07;;
16642;SDS011;8435;52.184;5.406;2022-12-19T12:43:10;4.83;;;4.37;;
16642;SDS011;8435;52.184;5.406;2022-12-19T12:45:46;4.63;;;4.23;;
16642;SDS011;8435;52.184;5.406;2022-12-19T12:48:16;4.77;;;4.30;;
16642;SDS011;8435;52.184;5.406;2022-12-19T12:50:47;4.50;;;4.10;;
16642;SDS011;8435;52.184;5.406;2022-12-19T12:53:17;4.17;;;3.87;;
16642;SDS011;8435;52.184;5.406;2022-12-19T12:55:46;6.50;;;4.13;;
16642;SDS011;8435;52.184;5.406;2022-12-19T13:01:11;5.17;;;4.57;;
16642;SDS011;8435;52.184;5.406;2022-12-19T13:03:42;5.00;;;4.60;;
16642;SDS011;8435;52.184;5.406;2022-12-19T13:06:20;4.40;;;4.00;;
16642;SDS011;8435;52.184;5.406;2022-12-19T13:08:51;4.17;;;3.87;;
16642;SDS011;8435;52.184;5.406;2022-12-19T13:11:34;4.67;;;3.77;;
16642;SDS011;8435;52.184;5.406;2022-12-19T13:17:10;4.07;;;3.67;;
16642;SDS011;8435;52.184;5.406;2022-12-19T13:19:38;3.87;;;3.53;;
16642;SDS011;8435;52.184;5.406;2022-12-19T13:22:37;4.50;;;4.10;;
16642;SDS011;8435;52.184;5.406;2022-12-19T13:31:17;3.63;;;3.33;;
16642;SDS011;8435;52.184;5.406;2022-12-19T13:36:47;3.77;;;3.47;;
16642;SDS011;8435;52.184;5.406;2022-12-19T13:39:21;4.37;;;3.97;;
16642;SDS011;8435;52.184;5.406;2022-12-19T13:42:01;4.13;;;3.80;;
16642;SDS011;8435;52.184;5.406;2022-12-19T13:44:53;4.83;;;3.60;;
16642;SDS011;8435;52.184;5.406;2022-12-19T13:47:21;3.83;;;3.43;;
16642;SDS011;8435;52.184;5.406;2022-12-19T13:49:49;3.50;;;3.20;;
16642;SDS011;8435;52.184;5.406;2022-12-19T13:52:17;4.37;;;3.97;;
16642;SDS011;8435;52.184;5.406;2022-12-19T13:54:45;4.40;;;4.00;;
16642;SDS011;8435;52.184;5.406;2022-12-19T13:57:20;4.23;;;3.60;;
16642;SDS011;8435;52.184;5.406;2022-12-19T13:59:49;3.90;;;3.27;;
16642;SDS011;8435;52.184;5.406;2022-12-19T14:02:20;4.57;;;3.73;;
16642;SDS011;8435;52.184;5.406;2022-12-19T14:04:52;4.90;;;4.10;;
16642;SDS011;8435;52.184;5.406;2022-12-19T14:10:06;5.43;;;4.10;;
16642;SDS011;8435;52.184;5.406;2022-12-19T14:12:41;4.70;;;3.67;;
16642;SDS011;8435;52.184;5.406;2022-12-19T14:15:30;4.57;;;3.93;;
16642;SDS011;8435;52.184;5.406;2022-12-19T14:17:59;4.80;;;3.50;;
16642;SDS011;8435;52.184;5.406;2022-12-19T14:20:27;4.40;;;4.03;;
16642;SDS011;8435;52.184;5.406;2022-12-19T14:22:55;5.00;;;4.57;;
16642;SDS011;8435;52.184;5.406;2022-12-19T14:25:23;8.40;;;4.37;;
16642;SDS011;8435;52.184;5.406;2022-12-19T14:27:58;4.47;;;4.07;;
16642;SDS011;8435;52.184;5.406;2022-12-19T14:30:28;4.30;;;3.90;;
16642;SDS011;8435;52.184;5.406;2022-12-19T14:33:02;4.70;;;4.30;;
16642;SDS011;8435;52.184;5.406;2022-12-19T14:35:32;4.80;;;4.03;;
16642;SDS011;8435;52.184;5.406;2022-12-19T14:38:03;4.57;;;4.17;;
16642;SDS011;8435;52.184;5.406;2022-12-19T14:40:32;5.90;;;5.30;;
16642;SDS011;8435;52.184;5.406;2022-12-19T14:43:07;6.50;;;5.50;;
16642;SDS011;8435;52.184;5.406;2022-12-19T14:46:09;6.20;;;5.03;;
16642;SDS011;8435;52.184;5.406;2022-12-19T14:48:43;4.10;;;3.77;;
16642;SDS011;8435;52.184;5.406;2022-12-19T14:51:14;4.00;;;3.60;;
16642;SDS011;8435;52.184;5.406;2022-12-19T14:54:04;3.80;;;3.37;;
16642;SDS011;8435;52.184;5.406;2022-12-19T14:56:41;19.53;;;11.83;;
16642;SDS011;8435;52.184;5.406;2022-12-19T14:59:26;7.63;;;6.37;;
16642;SDS011;8435;52.184;5.406;2022-12-19T15:01:57;10.40;;;7.73;;
16642;SDS011;8435;52.184;5.406;2022-12-19T15:04:27;13.33;;;10.13;;
16642;SDS011;8435;52.184;5.406;2022-12-19T15:06:58;11.23;;;7.73;;
16642;SDS011;8435;52.184;5.406;2022-12-19T15:09:26;5.60;;;5.00;;
16642;SDS011;8435;52.184;5.406;2022-12-19T15:11:55;8.63;;;6.00;;
16642;SDS011;8435;52.184;5.406;2022-12-19T15:14:47;5.87;;;4.17;;
16642;SDS011;8435;52.184;5.406;2022-12-19T15:17:17;5.93;;;4.57;;
16642;SDS011;8435;52.184;5.406;2022-12-19T15:19:45;3.67;;;3.30;;
16642;SDS011;8435;52.184;5.406;2022-12-19T15:22:13;3.70;;;3.33;;
16642;SDS011;8435;52.184;5.406;2022-12-19T15:24:40;4.13;;;3.37;;
16642;SDS011;8435;52.184;5.406;2022-12-19T15:27:08;3.93;;;3.60;;
16642;SDS011;8435;52.184;5.406;2022-12-19T15:29:37;3.47;;;3.17;;
16642;SDS011;8435;52.184;5.406;2022-12-19T15:32:07;4.20;;;3.63;;
16642;SDS011;8435;52.184;5.406;2022-12-19T15:34:37;3.33;;;3.03;;
16642;SDS011;8435;52.184;5.406;2022-12-19T15:37:06;4.00;;;3.60;;
16642;SDS011;8435;52.184;5.406;2022-12-19T15:39:35;3.73;;;3.43;;
16642;SDS011;8435;52.184;5.406;2022-12-19T15:42:10;3.83;;;3.20;;
16642;SDS011;8435;52.184;5.406;2022-12-19T15:44:43;3.40;;;3.10;;
16642;SDS011;8435;52.184;5.406;2022-12-19T15:47:15;4.30;;;3.43;;